createdAt,value
2019-04-29T00:00:23.741Z,98928.81
2019-04-29T00:02:49.803Z,98926.52
2019-04-29T00:05:15.965Z,98934.20
2019-04-29T00:07:41.929Z,98931.80
2019-04-29T00:10:08.497Z,98914.56
2019-04-29T00:12:34.842Z,98939.08
2019-04-29T00:15:00.841Z,98939.48
2019-04-29T00:17:27.096Z,98939.13
2019-04-29T00:19:53.693Z,98934.09
2019-04-29T00:22:19.681Z,98928.38
2019-04-29T00:24:45.589Z,98929.50
2019-04-29T00:27:11.617Z,98926.97
2019-04-29T00:29:37.514Z,98929.52
2019-04-29T00:32:03.851Z,98927.03
2019-04-29T00:34:29.748Z,98927.13
2019-04-29T00:36:55.829Z,98934.37
2019-04-29T00:39:21.938Z,98935.19
2019-04-29T00:41:47.869Z,98938.05
2019-04-29T00:44:13.855Z,98935.80
2019-04-29T00:46:39.800Z,98934.14
2019-04-29T00:49:05.704Z,98937.86
2019-04-29T00:51:31.675Z,98937.28
2019-04-29T00:53:57.580Z,98930.59
2019-04-29T00:56:23.557Z,98923.76
2019-04-29T00:58:49.477Z,98926.98
2019-04-29T01:01:15.499Z,98928.98
2019-04-29T01:03:41.531Z,98925.07
2019-04-29T01:06:07.606Z,98939.08
2019-04-29T01:08:34.798Z,98943.46
2019-04-29T01:11:00.845Z,98927.33
2019-04-29T01:13:26.944Z,98930.19
2019-04-29T01:15:52.896Z,98931.23
2019-04-29T01:18:19.045Z,98934.28
2019-04-29T01:20:44.944Z,98933.48
2019-04-29T01:23:10.891Z,98928.84
2019-04-29T01:25:36.954Z,98924.94
2019-04-29T01:28:03.150Z,98929.65
2019-04-29T01:30:53.628Z,98922.80
2019-04-29T01:33:19.536Z,98924.50
2019-04-29T01:35:45.435Z,98922.00
2019-04-29T01:38:11.437Z,98919.93
2019-04-29T01:40:37.400Z,98928.30
2019-04-29T01:43:03.341Z,98923.31
2019-04-29T01:45:29.301Z,98923.13
2019-04-29T01:47:55.235Z,98929.32
2019-04-29T01:50:21.128Z,98921.72
2019-04-29T01:52:47.249Z,98927.77
2019-04-29T01:55:13.281Z,98928.73
2019-04-29T01:57:39.229Z,98932.65
2019-04-29T02:00:05.684Z,98941.84
2019-04-29T02:02:31.824Z,98935.22
2019-04-29T02:04:57.905Z,98941.63
2019-04-29T02:07:24.026Z,98935.44
2019-04-29T02:09:49.926Z,98933.05
2019-04-29T02:12:15.860Z,98935.22
2019-04-29T02:14:41.879Z,98933.20
2019-04-29T02:17:08.005Z,98932.84
2019-04-29T02:19:33.900Z,98935.11
2019-04-29T02:21:59.976Z,98928.59
2019-04-29T02:24:25.904Z,98927.44
2019-04-29T02:26:51.853Z,98928.59
2019-04-29T02:29:18.184Z,98926.09
2019-04-29T02:31:44.199Z,98920.63
2019-04-29T02:34:10.163Z,98921.69
2019-04-29T02:36:36.583Z,98920.70
2019-04-29T02:39:06.072Z,98918.34
2019-04-29T02:41:32.903Z,98920.27
2019-04-29T02:43:58.810Z,98914.05
2019-04-29T02:46:24.832Z,98920.17
2019-04-29T02:48:50.724Z,98913.95
2019-04-29T02:51:16.723Z,98921.55
2019-04-29T02:53:42.614Z,98913.98
2019-04-29T02:56:08.541Z,98912.34
2019-04-29T02:58:34.591Z,98921.05
2019-04-29T03:01:01.872Z,98915.67
2019-04-29T03:03:28.949Z,98916.80
2019-04-29T03:05:55.159Z,98912.56
2019-04-29T03:08:21.186Z,98913.52
2019-04-29T03:10:47.275Z,98916.14
2019-04-29T03:13:13.458Z,98907.14
2019-04-29T03:15:41.478Z,98908.91
2019-04-29T03:18:07.647Z,98905.70
2019-04-29T03:20:33.578Z,98898.02
2019-04-29T03:22:59.790Z,98905.00
2019-04-29T03:25:25.729Z,98901.56
2019-04-29T03:27:51.671Z,98906.66
2019-04-29T03:30:18.006Z,98908.66
2019-04-29T03:32:44.126Z,98916.70
2019-04-29T03:35:10.219Z,98917.19
2019-04-29T03:37:36.337Z,98909.02
2019-04-29T03:40:03.559Z,98904.41
2019-04-29T03:42:29.652Z,98910.57
2019-04-29T03:44:56.892Z,98906.41
2019-04-29T03:47:22.860Z,98912.33
2019-04-29T03:49:48.841Z,98909.38
2019-04-29T03:52:14.766Z,98912.09
2019-04-29T03:54:40.731Z,98914.34
2019-04-29T03:57:06.657Z,98914.81
2019-04-29T03:59:32.548Z,98918.98
2019-04-29T04:01:58.650Z,98917.55
2019-04-29T04:04:25.797Z,98921.32
2019-04-29T04:06:51.699Z,98912.59
2019-04-29T04:09:17.691Z,98912.09
2019-04-29T04:11:43.753Z,98919.64
2019-04-29T04:14:09.701Z,98925.77
2019-04-29T04:16:35.795Z,98924.44
2019-04-29T04:19:01.699Z,98923.20
2019-04-29T04:21:27.766Z,98924.63
2019-04-29T04:23:57.957Z,98929.12
2019-04-29T04:26:21.692Z,98933.97
2019-04-29T04:28:47.744Z,98934.74
2019-04-29T04:31:13.640Z,98927.55
2019-04-29T04:33:39.643Z,98928.66
2019-04-29T04:36:05.685Z,98932.42
2019-04-29T04:38:31.626Z,98936.67
2019-04-29T04:40:57.674Z,98934.19
2019-04-29T04:43:23.670Z,98938.11
2019-04-29T04:45:49.570Z,98944.04
2019-04-29T04:48:15.670Z,98945.56
2019-04-29T04:50:41.595Z,98930.05
2019-04-29T04:53:08.301Z,98941.50
2019-04-29T04:55:34.324Z,98940.02
2019-04-29T04:58:00.678Z,98943.23
2019-04-29T05:00:26.681Z,98939.95
2019-04-29T05:02:52.756Z,98947.36
2019-04-29T05:05:18.687Z,98940.18
2019-04-29T05:07:44.581Z,98948.03
2019-04-29T05:10:10.646Z,98959.47
2019-04-29T05:12:36.898Z,98952.96
2019-04-29T05:15:04.349Z,98952.84
2019-04-29T05:17:30.895Z,98950.45
2019-04-29T05:19:57.378Z,98944.29
2019-04-29T05:22:23.538Z,98940.96
2019-04-29T05:24:49.475Z,98942.73
2019-04-29T05:27:15.379Z,98949.48
2019-04-29T05:29:41.544Z,98950.89
2019-04-29T05:32:07.502Z,98951.44
2019-04-29T05:34:33.551Z,98954.35
2019-04-29T05:36:59.483Z,98953.87
2019-04-29T05:39:25.410Z,98958.70
2019-04-29T05:41:51.411Z,98968.21
2019-04-29T05:44:19.105Z,98963.80
2019-04-29T05:46:45.298Z,98957.59
2019-04-29T05:49:11.292Z,98959.11
2019-04-29T05:51:37.245Z,98965.77
2019-04-29T05:54:03.471Z,98960.30
2019-04-29T05:56:29.597Z,98958.38
2019-04-29T05:58:55.516Z,98957.31
2019-04-29T06:01:21.624Z,98965.03
2019-04-29T06:03:47.573Z,98975.22
2019-04-29T06:06:13.684Z,98971.45
2019-04-29T06:08:40.630Z,98959.20
2019-04-29T06:11:06.660Z,98954.98
2019-04-29T06:13:32.781Z,98921.86
2019-04-29T06:15:58.738Z,98962.28
2019-04-29T06:18:24.717Z,98960.92
2019-04-29T06:20:50.659Z,98957.85
2019-04-29T06:23:19.056Z,98964.66
2019-04-29T06:25:44.411Z,98966.30
2019-04-29T06:28:10.450Z,98966.08
2019-04-29T06:30:40.281Z,98967.94
2019-04-29T06:33:04.678Z,98975.56
2019-04-29T06:35:30.770Z,98972.10
2019-04-29T06:37:56.718Z,98964.77
2019-04-29T06:40:22.715Z,98956.72
2019-04-29T06:42:49.333Z,98956.23
2019-04-29T06:45:16.793Z,98959.02
2019-04-29T06:47:42.768Z,98963.53
2019-04-29T06:50:09.108Z,98959.27
2019-04-29T06:52:35.007Z,98966.44
2019-04-29T06:55:01.088Z,98965.19
2019-04-29T06:57:27.136Z,98971.63
2019-04-29T06:59:54.802Z,98969.25
2019-04-29T07:02:20.999Z,98962.63
2019-04-29T07:04:47.261Z,98954.38
2019-04-29T07:07:13.253Z,98943.19
2019-04-29T07:09:39.281Z,98948.25
2019-04-29T07:12:08.109Z,98939.52
2019-04-29T07:14:38.147Z,98928.29
2019-04-29T07:17:05.523Z,98926.43
2019-04-29T07:19:29.152Z,98923.30
2019-04-29T07:21:56.623Z,98918.33
2019-04-29T07:24:22.626Z,98919.56
2019-04-29T07:26:48.710Z,98921.10
2019-04-29T07:29:14.832Z,98919.22
2019-04-29T07:31:40.733Z,98917.67
2019-04-29T07:34:08.533Z,98916.11
2019-04-29T07:36:34.744Z,98914.66
2019-04-29T07:39:00.769Z,98914.17
2019-04-29T07:41:26.800Z,98907.59
2019-04-29T07:43:52.720Z,98906.62
2019-04-29T07:46:18.616Z,98911.25
2019-04-29T07:48:44.654Z,98916.70
2019-04-29T07:51:10.557Z,98914.55
2019-04-29T07:53:44.811Z,98941.05
2019-04-29T07:56:06.342Z,98917.48
2019-04-29T07:58:32.300Z,98913.53
2019-04-29T08:00:58.355Z,98913.69
2019-04-29T08:03:24.335Z,98911.38
2019-04-29T08:05:50.704Z,98910.50
2019-04-29T08:08:21.291Z,98900.95
2019-04-29T08:10:54.075Z,98902.64
2019-04-29T08:13:12.835Z,98901.39
2019-04-29T08:15:41.486Z,98901.39
2019-04-29T08:18:11.038Z,98891.56
2019-04-29T08:20:35.479Z,98901.77
2019-04-29T08:23:04.135Z,98896.08
2019-04-29T08:25:30.219Z,98888.11
2019-04-29T08:27:56.220Z,98886.63
2019-04-29T08:30:22.169Z,98883.44
2019-04-29T08:32:48.272Z,98879.56
2019-04-29T08:35:15.227Z,98885.13
2019-04-29T08:37:41.284Z,98883.72
2019-04-29T08:40:16.050Z,98886.91
2019-04-29T08:42:37.331Z,98886.91
2019-04-29T08:45:05.439Z,98878.86
2019-04-29T08:47:31.856Z,98879.58
2019-04-29T08:49:57.950Z,98886.47
2019-04-29T08:52:24.031Z,98885.33
2019-04-29T08:54:50.740Z,98844.94
2019-04-29T08:57:18.985Z,98878.75
2019-04-29T08:59:44.907Z,98881.98
2019-04-29T09:02:11.491Z,98878.77
2019-04-29T09:04:37.774Z,98882.12
2019-04-29T09:07:12.354Z,98879.52
2019-04-29T09:09:31.544Z,98882.52
2019-04-29T09:11:57.581Z,98874.70
2019-04-29T09:14:23.531Z,98872.77
2019-04-29T09:16:49.539Z,98872.39
2019-04-29T09:19:15.521Z,98873.63
2019-04-29T09:21:41.497Z,98874.83
2019-04-29T09:24:07.571Z,98872.57
2019-04-29T09:26:33.495Z,98875.20
2019-04-29T09:28:59.755Z,98834.98
2019-04-29T09:31:27.302Z,98870.10
2019-04-29T09:34:06.032Z,98868.80
2019-04-29T09:36:21.044Z,98872.05
2019-04-29T09:38:47.007Z,98873.40
2019-04-29T09:41:13.065Z,98868.09
2019-04-29T09:43:39.129Z,98866.72
2019-04-29T09:46:05.092Z,98858.13
2019-04-29T09:48:31.922Z,98871.44
2019-04-29T09:50:58.164Z,98862.39
2019-04-29T09:53:24.162Z,98860.38
2019-04-29T09:55:50.135Z,98848.19
2019-04-29T09:58:16.219Z,98848.19
2019-04-29T10:00:42.853Z,98849.59
2019-04-29T10:03:09.176Z,98840.30
2019-04-29T10:05:35.281Z,98835.87
2019-04-29T10:08:01.326Z,98830.70
2019-04-29T10:10:27.483Z,98830.34
2019-04-29T10:12:54.257Z,98829.57
2019-04-29T10:15:21.219Z,98832.58
2019-04-29T10:17:50.836Z,98826.02
2019-04-29T10:20:15.224Z,98811.75
2019-04-29T10:22:41.227Z,98817.78
2019-04-29T10:25:08.189Z,98803.64
2019-04-29T10:27:34.518Z,98802.60
2019-04-29T10:30:00.458Z,98794.82
2019-04-29T10:32:26.465Z,98792.33
2019-04-29T10:34:52.487Z,98792.52
2019-04-29T10:37:18.439Z,98786.94
2019-04-29T10:39:44.433Z,98790.55
2019-04-29T10:42:10.349Z,98779.78
2019-04-29T10:44:37.561Z,98788.95
2019-04-29T10:47:08.543Z,98781.28
2019-04-29T10:49:39.119Z,98781.28
2019-04-29T10:52:04.631Z,98781.59
2019-04-29T10:54:30.732Z,98778.38
2019-04-29T10:56:56.928Z,98770.55
2019-04-29T10:59:35.282Z,98772.73
2019-04-29T11:02:01.739Z,98770.16
2019-04-29T11:04:25.499Z,98772.63
2019-04-29T11:06:51.825Z,98772.49
2019-04-29T11:09:20.594Z,98766.98
2019-04-29T11:11:46.608Z,98769.72
2019-04-29T11:14:12.551Z,98778.91
2019-04-29T11:16:46.602Z,98771.08
2019-04-29T11:19:06.494Z,98768.59
2019-04-29T11:21:32.618Z,98768.03
2019-04-29T11:23:58.930Z,98765.11
2019-04-29T11:26:24.838Z,98772.75
2019-04-29T11:28:52.256Z,98777.58
2019-04-29T11:31:19.269Z,98768.86
2019-04-29T11:33:45.409Z,98768.11
2019-04-29T11:36:11.619Z,98761.21
2019-04-29T11:38:38.684Z,98763.73
2019-04-29T11:41:04.593Z,98771.64
2019-04-29T11:43:30.494Z,98774.95
2019-04-29T11:45:56.721Z,98780.83
2019-04-29T11:48:22.792Z,98791.63
2019-04-29T11:50:50.191Z,98796.30
2019-04-29T11:53:16.753Z,98793.05
2019-04-29T11:55:46.253Z,98796.30
2019-04-29T11:58:10.781Z,98796.20
2019-04-29T12:00:37.122Z,98799.34
2019-04-29T12:03:03.397Z,98802.65
2019-04-29T12:05:29.624Z,98791.97
2019-04-29T12:07:55.853Z,98779.64
2019-04-29T12:10:21.933Z,98780.13
2019-04-29T12:12:49.086Z,98773.36
2019-04-29T12:15:15.473Z,98770.72
2019-04-29T12:17:41.430Z,98770.22
2019-04-29T12:20:08.011Z,98756.20
2019-04-29T12:22:47.168Z,98759.16
2019-04-29T12:25:04.369Z,98757.05
2019-04-29T12:27:30.439Z,98749.30
2019-04-29T12:29:59.334Z,98756.91
2019-04-29T12:32:25.163Z,98749.84
2019-04-29T12:34:53.114Z,98757.53
2019-04-29T12:37:19.004Z,98754.97
2019-04-29T12:39:45.177Z,98750.04
2019-04-29T12:42:11.138Z,98753.29
2019-04-29T12:44:39.883Z,98737.34
2019-04-29T12:47:06.284Z,98726.14
2019-04-29T12:49:32.980Z,98710.68
2019-04-29T12:51:58.920Z,98711.50
2019-04-29T12:54:24.894Z,98718.09
2019-04-29T12:56:50.867Z,98709.22
2019-04-29T12:59:17.177Z,98701.32
2019-04-29T13:01:51.291Z,98699.67
2019-04-29T13:04:14.785Z,98692.47
2019-04-29T13:06:40.395Z,98688.17
2019-04-29T13:09:17.185Z,98683.78
2019-04-29T13:11:45.460Z,98683.26
2019-04-29T13:14:03.439Z,98681.48
2019-04-29T13:16:29.354Z,98684.42
2019-04-29T13:18:55.804Z,98681.16
2019-04-29T13:21:23.467Z,98673.27
2019-04-29T13:23:59.415Z,98668.84
2019-04-29T13:26:27.766Z,98662.89
2019-04-29T13:28:59.062Z,98656.02
2019-04-29T13:31:13.319Z,98653.88
2019-04-29T13:33:39.360Z,98645.02
2019-04-29T13:36:05.584Z,98643.05
2019-04-29T13:38:31.565Z,98628.59
2019-04-29T13:41:12.899Z,98619.25
2019-04-29T13:43:27.020Z,98623.82
2019-04-29T13:45:53.257Z,98635.02
2019-04-29T13:48:19.353Z,98642.27
2019-04-29T13:50:45.564Z,98632.73
2019-04-29T13:53:16.463Z,98632.58
2019-04-29T13:55:49.342Z,98629.77
2019-04-29T13:58:07.626Z,98629.77
2019-04-29T14:00:36.443Z,98635.55
2019-04-29T14:03:02.389Z,98624.88
2019-04-29T14:05:32.476Z,98625.69
2019-04-29T14:07:56.356Z,98617.66
2019-04-29T14:10:22.403Z,98633.25
2019-04-29T14:12:54.348Z,98632.94
2019-04-29T14:15:16.494Z,98626.52
2019-04-29T14:17:42.463Z,98619.61
2019-04-29T14:20:10.949Z,98620.27
2019-04-29T14:22:36.459Z,98624.71
2019-04-29T14:25:03.501Z,98622.23
2019-04-29T14:27:29.502Z,98616.98
2019-04-29T14:29:55.550Z,98620.09
2019-04-29T14:32:33.334Z,98612.06
2019-04-29T14:34:49.549Z,98616.33
2019-04-29T14:37:24.412Z,98618.97
2019-04-29T14:39:44.154Z,98606.81
2019-04-29T14:42:10.146Z,98606.33
2019-04-29T14:44:36.052Z,98607.78
2019-04-29T14:47:02.363Z,98610.08
2019-04-29T14:49:28.434Z,98603.69
2019-04-29T14:52:03.535Z,98618.14
2019-04-29T14:54:41.705Z,98613.04
2019-04-29T14:57:09.280Z,98614.03
2019-04-29T14:59:35.610Z,98621.94
2019-04-29T15:02:01.756Z,98622.23
2019-04-29T15:04:27.774Z,98626.67
2019-04-29T15:06:53.726Z,98620.11
2019-04-29T15:09:20.149Z,98619.28
2019-04-29T15:11:47.342Z,98626.19
2019-04-29T15:14:13.818Z,98625.05
2019-04-29T15:16:40.652Z,98618.97
2019-04-29T15:19:12.845Z,98632.77
2019-04-29T15:21:42.608Z,98626.16
2019-04-29T15:24:03.348Z,98635.39
2019-04-29T15:26:29.402Z,98614.17
2019-04-29T15:28:55.741Z,98627.67
2019-04-29T15:31:22.180Z,98621.59
2019-04-29T15:33:48.899Z,98619.43
2019-04-29T15:36:15.033Z,98618.14
2019-04-29T15:38:41.152Z,98625.55
2019-04-29T15:41:07.172Z,98622.09
2019-04-29T15:43:46.437Z,98618.30
2019-04-29T15:46:01.685Z,98624.72
2019-04-29T15:48:27.800Z,98634.08
2019-04-29T15:50:53.822Z,98633.89
2019-04-29T15:53:19.843Z,98636.70
2019-04-29T15:55:46.076Z,98587.61
2019-04-29T15:58:12.110Z,98630.13
2019-04-29T16:00:40.511Z,98637.68
2019-04-29T16:03:07.142Z,98635.56
2019-04-29T16:05:33.235Z,98635.56
2019-04-29T16:07:59.260Z,98639.65
2019-04-29T16:10:26.612Z,98642.61
2019-04-29T16:12:52.750Z,98642.59
2019-04-29T16:15:18.966Z,98646.08
2019-04-29T16:17:45.192Z,98650.83
2019-04-29T16:20:11.420Z,98646.23
2019-04-29T16:22:39.264Z,98633.58
2019-04-29T16:25:11.101Z,98673.81
2019-04-29T16:27:34.162Z,98645.41
2019-04-29T16:30:00.635Z,98645.73
2019-04-29T16:32:26.651Z,98647.53
2019-04-29T16:34:52.685Z,98653.13
2019-04-29T16:37:19.546Z,98648.86
2019-04-29T16:39:46.981Z,98656.75
2019-04-29T16:42:13.106Z,98650.34
2019-04-29T16:44:39.431Z,98650.67
2019-04-29T16:47:07.377Z,98646.55
2019-04-29T16:49:33.828Z,98652.32
2019-04-29T16:51:59.983Z,98651.98
2019-04-29T16:54:28.518Z,98650.66
2019-04-29T16:56:54.149Z,98639.64
2019-04-29T16:59:20.273Z,98644.74
2019-04-29T17:01:46.396Z,98641.12
2019-04-29T17:04:12.391Z,98642.45
2019-04-29T17:06:41.660Z,98646.72
2019-04-29T17:09:07.640Z,98643.76
2019-04-29T17:11:35.655Z,98646.56
2019-04-29T17:14:03.401Z,98647.38
2019-04-29T17:16:29.805Z,98653.95
2019-04-29T17:18:56.135Z,98651.64
2019-04-29T17:21:22.259Z,98664.30
2019-04-29T17:23:48.280Z,98666.77
2019-04-29T17:26:14.317Z,98665.28
2019-04-29T17:28:40.637Z,98662.16
2019-04-29T17:33:35.233Z,98669.56
2019-04-29T17:35:14.780Z,98663.64
2019-04-29T17:36:02.060Z,98669.54
2019-04-29T17:38:28.173Z,98671.52
2019-04-29T17:40:54.173Z,98671.70
2019-04-29T17:43:21.241Z,98676.28
2019-04-29T17:45:47.502Z,98680.39
2019-04-29T17:48:13.604Z,98677.59
2019-04-29T17:50:46.276Z,98673.64
2019-04-29T17:53:08.745Z,98676.78
2019-04-29T17:55:40.262Z,98669.56
2019-04-29T17:58:03.088Z,98673.17
2019-04-29T18:00:41.341Z,98675.81
2019-04-29T18:03:00.863Z,98677.75
2019-04-29T18:05:32.984Z,98675.95
2019-04-29T18:07:55.552Z,98674.82
2019-04-29T18:10:24.342Z,98676.47
2019-04-29T18:13:52.632Z,98675.80
2019-04-29T18:16:25.745Z,98680.39
2019-04-29T18:18:53.221Z,98684.48
2019-04-29T18:21:14.987Z,98687.95
2019-04-29T18:23:41.324Z,98691.06
2019-04-29T18:26:07.653Z,98690.59
2019-04-29T18:28:33.712Z,98696.33
2019-04-29T18:30:59.738Z,98693.55
2019-04-29T18:33:30.032Z,98661.00
2019-04-29T18:36:02.116Z,98695.03
2019-04-29T18:38:21.636Z,98695.53
2019-04-29T18:40:49.501Z,98701.42
2019-04-29T18:43:19.235Z,98700.27
2019-04-29T18:45:55.208Z,98700.95
2019-04-29T18:48:17.128Z,98708.33
2019-04-29T18:50:40.039Z,98707.50
2019-04-29T18:53:06.952Z,98701.44
2019-04-29T18:55:35.233Z,98702.59
2019-04-29T18:58:01.183Z,98705.53
2019-04-29T19:00:27.507Z,98636.02
2019-04-29T19:02:58.369Z,98710.46
2019-04-29T19:05:27.790Z,98709.66
2019-04-29T19:07:55.178Z,98707.19
2019-04-29T19:10:19.038Z,98707.84
2019-04-29T19:12:57.169Z,98713.59
2019-04-29T19:15:15.075Z,98714.41
2019-04-29T19:17:41.344Z,98721.16
2019-04-29T19:20:08.715Z,98711.61
2019-04-29T19:22:36.067Z,98712.61
2019-04-29T19:25:10.484Z,98716.70
2019-04-29T19:27:37.153Z,98721.47
2019-04-29T19:30:05.343Z,98719.84
2019-04-29T19:32:31.811Z,98723.61
2019-04-29T19:34:58.543Z,98719.83
2019-04-29T19:37:25.667Z,98723.42
2019-04-29T19:39:58.293Z,98716.88
2019-04-29T19:42:29.137Z,98732.30
2019-04-29T19:44:48.887Z,98718.01
2019-04-29T19:47:16.632Z,98725.75
2019-04-29T19:49:44.667Z,98730.52
2019-04-29T19:52:11.053Z,98727.06
2019-04-29T19:54:37.326Z,98718.19
2019-04-29T19:57:07.248Z,98728.35
2019-04-29T19:59:31.986Z,98730.17
2019-04-29T20:02:05.725Z,98722.61
2019-04-29T20:04:26.817Z,98721.97
2019-04-29T20:06:58.396Z,98727.23
2019-04-29T20:09:22.997Z,98721.48
2019-04-29T20:11:49.662Z,98725.59
2019-04-29T20:14:21.076Z,98726.89
2019-04-29T20:16:53.549Z,98723.77
2019-04-29T20:19:18.033Z,98722.89
2019-04-29T20:21:40.162Z,98719.50
2019-04-29T20:24:09.369Z,98718.02
2019-04-29T20:26:35.958Z,98722.60
2019-04-29T20:29:02.593Z,98724.72
2019-04-29T20:31:29.081Z,98726.97
2019-04-29T20:33:56.012Z,98723.20
2019-04-29T20:36:37.422Z,98722.41
2019-04-29T20:38:51.818Z,98722.70
2019-04-29T20:41:36.792Z,98718.45
2019-04-29T20:43:46.431Z,98722.73
2019-04-29T20:46:12.946Z,98716.77
2019-04-29T20:48:40.585Z,98722.01
2019-04-29T20:51:13.179Z,98724.33
2019-04-29T20:53:36.080Z,98720.03
2019-04-29T20:56:10.312Z,98718.73
2019-04-29T20:58:32.874Z,98712.84
2019-04-29T21:01:02.991Z,98712.82
2019-04-29T21:03:32.096Z,98720.22
2019-04-29T21:06:02.347Z,98720.84
2019-04-29T21:08:25.746Z,98718.34
2019-04-29T21:10:52.309Z,98711.72
2019-04-29T21:13:20.272Z,98713.37
2019-04-29T21:15:52.193Z,98712.00
2019-04-29T21:18:14.522Z,98706.34
2019-04-29T21:20:41.851Z,98707.03
2019-04-29T21:23:07.804Z,98715.30
2019-04-29T21:25:35.631Z,98708.48
2019-04-29T21:28:02.413Z,98703.71
2019-04-29T21:30:35.500Z,98718.30
2019-04-29T21:32:56.554Z,98719.26
2019-04-29T21:35:22.674Z,98689.69
2019-04-29T21:37:48.798Z,98724.53
2019-04-29T21:40:18.751Z,98719.10
2019-04-29T21:42:47.131Z,98725.05
2019-04-29T21:45:13.372Z,98727.32
2019-04-29T21:47:45.639Z,98726.86
2019-04-29T21:50:09.151Z,98726.16
2019-04-29T21:52:36.569Z,98732.60
2019-04-29T21:55:05.255Z,98725.66
2019-04-29T21:57:31.366Z,98724.15
2019-04-29T21:59:57.750Z,98733.41
2019-04-29T22:02:25.918Z,98735.36
2019-04-29T22:04:51.841Z,98729.39
2019-04-29T22:07:17.919Z,98731.70
2019-04-29T22:09:47.205Z,98725.77
2019-04-29T22:12:14.217Z,98727.41
2019-04-29T22:14:48.818Z,98732.31
2019-04-29T22:17:09.428Z,98730.38
2019-04-29T22:19:35.657Z,98731.70
2019-04-29T22:22:01.987Z,98739.21
2019-04-29T22:24:28.316Z,98733.25
2019-04-29T22:26:56.500Z,98736.14
2019-04-29T22:29:24.765Z,98732.69
2019-04-29T22:31:51.093Z,98736.42
2019-04-29T22:34:19.312Z,98737.30
2019-04-29T22:36:48.188Z,98740.44
2019-04-29T22:39:15.845Z,98738.81
2019-04-29T22:41:41.943Z,98734.64
2019-04-29T22:44:08.274Z,98735.05
2019-04-29T22:46:35.675Z,98740.39
2019-04-29T22:49:05.724Z,98750.70
2019-04-29T22:51:31.784Z,98748.40
2019-04-29T22:53:57.894Z,98754.47
2019-04-29T22:56:27.615Z,98753.59
2019-04-29T22:58:52.094Z,98751.77
2019-04-29T23:01:18.418Z,98750.94
2019-04-29T23:03:45.143Z,98752.20
2019-04-29T23:06:12.511Z,98745.59
2019-04-29T23:08:38.736Z,98749.59
2019-04-29T23:11:05.377Z,98743.78
2019-04-29T23:13:32.690Z,98743.60
2019-04-29T23:16:02.158Z,98745.39
2019-04-29T23:18:29.114Z,98743.69
2019-04-29T23:20:55.369Z,98746.30
2019-04-29T23:23:22.658Z,98743.02
2019-04-29T23:25:49.808Z,98738.87
2019-04-29T23:28:16.035Z,98733.98
2019-04-29T23:30:43.490Z,98730.99
2019-04-29T23:33:09.592Z,98735.53
2019-04-29T23:35:39.720Z,98737.25
2019-04-29T23:38:09.361Z,98732.02
2019-04-29T23:40:33.772Z,98730.41
2019-04-29T23:42:59.767Z,98723.09
2019-04-29T23:45:25.830Z,98731.02
2019-04-29T23:47:52.098Z,98732.25
2019-04-29T23:50:20.083Z,98724.83
2019-04-29T23:52:50.299Z,98692.00
2019-04-29T23:55:15.992Z,98728.64
2019-04-29T23:57:43.358Z,98723.92
